createdAt,value
2022-10-11T01:51:10.183Z,15.12
2022-10-11T01:53:50.788Z,15.11
2022-10-11T01:56:29.815Z,15.11
2022-10-11T01:59:24.959Z,15.18
2022-10-11T02:02:20.850Z,15.20
2022-10-11T02:05:03.309Z,15.20
2022-10-11T02:07:36.971Z,15.19
2022-10-11T02:10:18.649Z,15.18
2022-10-11T02:12:53.686Z,15.17
2022-10-11T02:15:22.262Z,15.16
2022-10-11T02:17:55.572Z,15.14
2022-10-11T02:20:26.499Z,15.13
2022-10-11T02:22:59.921Z,15.18
2022-10-11T02:25:30.638Z,15.20
2022-10-11T02:28:01.316Z,15.20
2022-10-11T02:30:30.797Z,15.18
2022-10-11T02:32:59.277Z,15.17
2022-10-11T02:35:30.132Z,15.15
2022-10-11T02:38:05.849Z,15.13
2022-10-11T02:40:36.373Z,15.11
2022-10-11T02:43:05.226Z,15.10
2022-10-11T02:45:39.359Z,15.14
2022-10-11T02:48:08.876Z,15.15
2022-10-11T02:50:35.596Z,15.15
2022-10-11T02:53:04.820Z,15.13
2022-10-11T02:55:32.250Z,15.11
2022-10-11T02:57:59.044Z,15.09
2022-10-11T03:00:25.771Z,15.08
2022-10-11T03:02:53.070Z,15.06
2022-10-11T03:05:20.110Z,15.06
2022-10-11T03:07:46.823Z,15.10
2022-10-11T03:10:13.855Z,15.10
2022-10-11T03:12:40.600Z,15.10
2022-10-11T03:15:07.764Z,15.07
2022-10-11T03:17:36.969Z,15.05
2022-10-11T03:20:06.271Z,15.03
2022-10-11T03:22:33.037Z,15.01
2022-10-11T03:25:03.565Z,14.99
2022-10-11T03:27:31.265Z,14.98
2022-10-11T03:29:58.117Z,15.02
2022-10-11T03:32:24.976Z,15.03
2022-10-11T03:34:51.681Z,15.02
2022-10-11T03:37:18.473Z,15.00
2022-10-11T03:39:45.949Z,14.98
2022-10-11T03:42:13.810Z,14.95
2022-10-11T03:44:42.403Z,14.94
2022-10-11T03:47:11.071Z,14.92
2022-10-11T03:54:16.156Z,14.96
2022-10-11T04:00:49.979Z,14.96
2022-10-11T04:00:50.424Z,14.90
2022-10-11T04:04:23.976Z,14.88
2022-10-11T04:31:07.024Z,14.68
2022-10-11T04:33:36.444Z,14.66
2022-10-11T04:36:03.734Z,14.67
2022-10-11T04:38:30.678Z,14.72
2022-10-11T04:41:14.920Z,14.75
2022-10-11T04:43:41.710Z,14.76
2022-10-11T04:46:10.155Z,14.74
2022-10-11T04:48:37.344Z,14.74
2022-10-11T04:51:04.271Z,14.74
2022-10-11T04:53:30.985Z,14.74
2022-10-11T04:56:06.031Z,14.73
2022-10-11T04:58:34.710Z,14.72
2022-10-11T05:01:01.981Z,14.71
2022-10-11T05:03:28.849Z,14.76
2022-10-11T05:05:55.738Z,14.78
2022-10-11T05:08:25.686Z,14.77
2022-10-11T05:11:01.584Z,14.76
2022-10-11T05:13:29.742Z,14.74
2022-10-11T05:15:57.238Z,14.73
2022-10-11T05:18:24.767Z,14.71
2022-10-11T05:21:20.655Z,14.70
2022-10-11T05:23:49.018Z,14.68
2022-10-11T05:26:20.016Z,14.68
2022-10-11T05:29:19.987Z,14.72
2022-10-11T05:32:08.926Z,14.74
2022-10-11T05:41:39.337Z,14.69
2022-10-11T05:44:50.116Z,14.68
2022-10-11T06:09:52.614Z,14.68
2022-10-11T06:15:41.164Z,14.67
2022-10-11T06:29:30.138Z,14.63
2022-10-11T06:31:58.886Z,14.67
2022-10-11T06:34:26.803Z,14.69
2022-10-11T06:36:59.423Z,14.67
2022-10-11T06:39:26.102Z,14.67
2022-10-11T06:41:52.734Z,14.66
2022-10-11T06:44:19.871Z,14.65
2022-10-11T06:50:59.747Z,14.63
2022-10-11T06:53:32.964Z,14.61
2022-10-11T06:56:28.785Z,14.61
2022-10-11T07:14:14.155Z,14.69
2022-10-11T07:30:57.642Z,14.76
2022-10-11T07:34:06.897Z,14.78
2022-10-11T07:36:56.626Z,14.78
2022-10-11T07:40:35.736Z,14.78
2022-10-11T07:43:20.651Z,14.78
2022-10-11T07:45:37.659Z,14.70
2022-10-11T07:45:53.251Z,14.79
2022-10-11T07:48:20.907Z,14.80
2022-10-11T07:50:47.775Z,14.80
2022-10-11T07:53:23.322Z,14.80
2022-10-11T07:55:50.497Z,14.89
2022-10-11T08:01:59.252Z,14.93
2022-10-11T08:04:28.991Z,14.93
2022-10-11T08:06:58.667Z,14.94
2022-10-11T08:09:41.264Z,14.96
2022-10-11T08:12:11.137Z,14.97
2022-10-11T08:14:37.894Z,14.95
2022-10-11T08:17:05.137Z,14.94
2022-10-11T08:19:32.175Z,14.94
2022-10-11T08:21:59.131Z,14.94
2022-10-11T08:24:28.278Z,15.01
2022-10-11T08:29:46.116Z,15.07
2022-10-11T08:32:12.955Z,15.07
2022-10-11T08:34:42.354Z,15.08
2022-10-11T08:37:09.330Z,15.08
2022-10-11T08:39:38.406Z,15.08
2022-10-11T08:42:23.772Z,15.07
2022-10-11T08:45:11.500Z,15.07
2022-10-11T08:50:31.329Z,15.04
2022-10-11T08:53:17.574Z,15.04
2022-10-11T08:56:10.087Z,15.10
2022-10-11T08:59:10.165Z,15.13
2022-10-11T09:01:47.567Z,15.13
2022-10-11T09:04:17.416Z,15.12
2022-10-11T09:07:10.808Z,15.12
2022-10-11T09:09:56.396Z,15.11
2022-10-11T09:12:31.016Z,15.10
2022-10-11T09:15:17.423Z,15.08
2022-10-11T09:18:32.364Z,15.05
2022-10-11T09:21:05.354Z,15.03
2022-10-11T09:23:48.396Z,15.03
2022-10-11T09:26:29.415Z,15.10
2022-10-11T09:29:20.063Z,15.15
2022-10-11T09:31:52.843Z,15.16
2022-10-11T09:34:22.420Z,15.17
2022-10-11T09:37:04.842Z,15.18
2022-10-11T09:39:44.109Z,15.20
2022-10-11T09:42:21.062Z,15.21
2022-10-11T09:44:50.012Z,15.21
2022-10-11T09:47:24.931Z,15.19
2022-10-11T09:49:59.730Z,15.19
2022-10-11T09:52:29.076Z,15.18
2022-10-11T09:55:02.830Z,15.19
2022-10-11T09:57:41.991Z,15.27
2022-10-11T10:00:36.302Z,15.32
2022-10-11T10:03:40.355Z,15.33
2022-10-11T10:06:17.471Z,15.34
2022-10-11T10:08:52.657Z,15.36
2022-10-11T10:14:26.078Z,15.40
2022-10-11T10:17:24.775Z,15.40
2022-10-11T10:19:57.047Z,15.41
2022-10-11T10:22:30.367Z,15.41
2022-10-11T10:25:01.413Z,15.41
2022-10-11T10:27:40.670Z,15.41
2022-10-11T10:30:13.642Z,15.44
2022-10-11T10:32:48.743Z,15.52
2022-10-11T10:35:36.843Z,15.57
2022-10-11T10:39:01.073Z,15.60
2022-10-11T10:41:30.547Z,15.62
2022-10-11T10:44:01.881Z,15.63
2022-10-11T10:47:03.393Z,15.65
2022-10-11T10:49:53.299Z,15.68
2022-10-11T10:52:49.129Z,15.71
2022-10-11T10:55:25.972Z,15.73
2022-10-11T10:58:28.268Z,15.75
2022-10-11T11:01:26.805Z,15.77
2022-10-11T11:04:15.479Z,15.81
2022-10-11T11:06:51.289Z,15.91
2022-10-11T11:09:35.020Z,15.97
2022-10-11T11:12:20.033Z,15.99
2022-10-11T11:15:15.358Z,16.03
2022-10-11T11:18:01.351Z,16.12
2022-10-11T11:21:07.803Z,16.21
2022-10-11T11:23:45.367Z,16.30
2022-10-11T11:26:34.129Z,16.38
2022-10-11T11:29:12.356Z,16.43
2022-10-11T11:31:50.689Z,16.44
2022-10-11T11:34:28.978Z,16.43
2022-10-11T11:38:01.273Z,16.41
2022-10-11T11:40:55.191Z,16.44
2022-10-11T11:43:34.346Z,16.49
2022-10-11T11:46:21.040Z,16.51
2022-10-11T11:48:51.805Z,16.47
2022-10-11T11:51:29.013Z,16.45
2022-10-11T11:54:19.689Z,16.45
2022-10-11T11:57:08.792Z,16.45
2022-10-11T11:59:51.750Z,16.44
2022-10-11T12:02:44.058Z,16.43
2022-10-11T12:05:15.551Z,16.41
2022-10-11T12:08:02.776Z,16.38
2022-10-11T12:10:34.592Z,16.37
2022-10-11T12:13:32.405Z,16.35
2022-10-11T12:16:17.962Z,16.32
2022-10-11T12:18:57.274Z,16.31
2022-10-11T12:21:27.025Z,16.37
2022-10-11T12:23:57.052Z,16.39
2022-10-11T12:26:39.911Z,16.40
2022-10-11T12:29:19.012Z,16.39
2022-10-11T12:31:49.478Z,16.39
2022-10-11T12:34:26.875Z,16.40
2022-10-11T12:36:53.645Z,16.40
2022-10-11T12:39:23.190Z,16.39
2022-10-11T12:41:56.243Z,16.38
2022-10-11T12:44:26.523Z,16.36
2022-10-11T12:47:00.461Z,16.35
2022-10-11T12:49:31.313Z,16.33
2022-10-11T12:52:03.882Z,16.31
2022-10-11T12:55:01.773Z,16.28
2022-10-11T12:58:10.683Z,16.26
2022-10-11T13:00:40.403Z,16.26
2022-10-11T13:03:32.255Z,16.31
2022-10-11T13:06:54.173Z,16.32
2022-10-11T13:09:48.944Z,16.27
2022-10-11T13:12:23.587Z,16.25
2022-10-11T13:14:59.488Z,16.25
2022-10-11T13:17:38.722Z,16.25
2022-10-11T13:20:28.417Z,16.24
2022-10-11T13:25:42.350Z,16.20
2022-10-11T13:28:09.510Z,16.19
2022-10-11T13:30:37.574Z,16.23
2022-10-11T13:33:17.925Z,16.25
2022-10-11T13:35:45.033Z,16.26
2022-10-11T13:38:20.914Z,16.24
2022-10-11T13:40:50.880Z,16.23
2022-10-11T13:47:42.002Z,16.17
2022-10-11T13:50:17.784Z,16.18
2022-10-11T13:52:59.477Z,16.16
2022-10-11T13:55:34.796Z,16.14
2022-10-11T13:58:11.971Z,16.10
2022-10-11T14:08:47.423Z,16.12
2022-10-11T14:30:55.594Z,15.90
2022-10-11T14:49:17.072Z,15.90
2022-10-11T14:51:45.969Z,15.88
2022-10-11T15:03:27.388Z,15.80
2022-10-11T15:05:54.205Z,15.85
2022-10-11T15:08:56.172Z,15.87
2022-10-11T15:30:29.350Z,15.64
2022-10-11T15:36:51.582Z,15.71
2022-10-11T15:43:35.008Z,15.70
2022-10-11T15:46:02.645Z,15.69
2022-10-11T15:48:29.606Z,15.67
2022-10-11T15:50:56.575Z,15.66
2022-10-11T15:53:31.383Z,15.65
2022-10-11T15:56:01.759Z,15.63
2022-10-11T15:58:31.563Z,15.61
2022-10-11T16:01:02.099Z,15.61
2022-10-11T16:03:30.450Z,15.67
2022-10-11T16:06:02.506Z,15.69
2022-10-11T16:08:32.052Z,15.70
2022-10-11T16:11:00.158Z,15.69
2022-10-11T16:13:26.948Z,15.68
2022-10-11T16:15:53.772Z,15.66
2022-10-11T16:18:22.377Z,15.64
2022-10-11T16:20:52.052Z,15.63
2022-10-11T16:23:20.929Z,15.60
2022-10-11T16:26:02.809Z,15.58
2022-10-11T16:28:30.599Z,15.56
2022-10-11T16:30:57.430Z,15.54
2022-10-11T16:33:24.106Z,15.53
2022-10-11T16:35:50.924Z,15.59
2022-10-11T16:38:17.736Z,15.62
2022-10-11T16:40:44.425Z,15.62
2022-10-11T16:43:11.163Z,15.60
2022-10-11T16:45:37.908Z,15.58
2022-10-11T16:48:05.511Z,15.57
2022-10-11T16:50:36.884Z,15.56
2022-10-11T16:53:06.162Z,15.54
2022-10-11T16:55:32.869Z,15.53
2022-10-11T16:57:59.558Z,15.50
2022-10-11T17:00:26.293Z,15.49
2022-10-11T17:02:53.107Z,15.47
2022-10-11T17:05:19.777Z,15.46
2022-10-11T17:07:46.486Z,15.53
2022-10-11T17:10:13.672Z,15.56
2022-10-11T17:12:40.421Z,15.57
2022-10-11T17:15:16.748Z,15.55
2022-10-11T17:17:43.450Z,15.52
2022-10-11T17:24:34.287Z,15.44
2022-10-11T17:27:39.032Z,15.40
2022-10-11T17:30:59.652Z,15.37
2022-10-11T17:37:30.226Z,15.29
2022-10-11T17:40:48.219Z,15.29
2022-10-11T17:43:35.223Z,15.34
2022-10-11T17:46:05.987Z,15.36
2022-10-11T17:48:37.205Z,15.38
2022-10-11T17:51:13.725Z,15.37
2022-10-11T17:53:41.680Z,15.37
2022-10-11T17:56:11.403Z,15.37
2022-10-11T17:58:39.075Z,15.36
2022-10-11T18:01:12.167Z,15.37
2022-10-11T18:03:39.198Z,15.36
2022-10-11T18:06:12.322Z,15.36
2022-10-11T18:08:40.926Z,15.35
2022-10-11T18:11:13.944Z,15.31
2022-10-11T18:13:46.068Z,15.28
2022-10-11T18:16:15.748Z,15.31
2022-10-11T18:18:44.204Z,15.33
2022-10-11T18:21:12.413Z,15.34
2022-10-11T18:23:39.987Z,15.32
2022-10-11T18:26:34.018Z,15.32
2022-10-11T18:29:01.302Z,15.31
2022-10-11T18:31:32.813Z,15.30
2022-10-11T18:33:59.957Z,15.30
2022-10-11T18:36:29.410Z,15.28
2022-10-11T18:38:58.712Z,15.27
2022-10-11T18:41:31.946Z,15.25
2022-10-11T18:44:05.582Z,15.24
2022-10-11T18:46:33.601Z,15.24
2022-10-11T18:49:03.708Z,15.30
2022-10-11T18:51:37.440Z,15.32
2022-10-11T18:54:06.456Z,15.32
2022-10-11T18:56:37.020Z,15.30
2022-10-11T18:59:05.825Z,15.28
2022-10-11T19:01:35.314Z,15.27
2022-10-11T19:04:03.827Z,15.26
2022-10-11T19:06:34.404Z,15.24
2022-10-11T19:09:01.448Z,15.22
2022-10-11T19:11:28.966Z,15.22
2022-10-11T19:14:01.066Z,15.20
2022-10-11T19:16:30.067Z,15.19
2022-10-11T19:18:57.961Z,15.24
2022-10-11T19:21:26.164Z,15.26
2022-10-11T19:23:55.308Z,15.26
2022-10-11T19:26:29.529Z,15.24
2022-10-11T19:29:02.175Z,15.22
2022-10-11T19:31:30.143Z,15.19
2022-10-11T19:33:58.076Z,15.17
2022-10-11T19:36:25.497Z,15.15
2022-10-11T19:38:56.949Z,15.13
2022-10-11T19:41:26.075Z,15.10
2022-10-11T19:43:53.976Z,15.08
2022-10-11T19:49:10.181Z,15.12
2022-10-11T19:51:38.699Z,15.13
2022-10-11T19:54:08.465Z,15.12
2022-10-11T19:56:36.282Z,15.11
2022-10-11T19:59:03.639Z,15.10
2022-10-11T20:01:31.498Z,15.10
2022-10-11T20:04:00.484Z,15.08
2022-10-11T20:06:28.552Z,15.07
2022-10-11T20:09:23.824Z,15.05
2022-10-11T20:11:43.009Z,15.04
2022-10-11T20:14:09.703Z,15.08
2022-10-11T20:16:36.523Z,15.08
2022-10-11T20:19:04.128Z,15.07
2022-10-11T20:21:30.964Z,15.07
2022-10-11T20:24:00.935Z,15.07
2022-10-11T20:26:29.702Z,15.05
2022-10-11T20:28:57.754Z,15.05
2022-10-11T20:31:27.911Z,15.04
2022-10-11T20:33:57.133Z,15.02
2022-10-11T20:36:26.955Z,15.01
2022-10-11T20:38:53.634Z,15.06
2022-10-11T20:41:23.171Z,15.09
2022-10-11T20:43:53.086Z,15.09
2022-10-11T20:46:22.475Z,15.06
2022-10-11T20:48:52.015Z,15.05
2022-10-11T20:51:19.700Z,15.04
2022-10-11T20:53:46.792Z,15.02
2022-10-11T20:56:15.491Z,15.01
2022-10-11T20:58:42.988Z,15.00
2022-10-11T21:01:12.937Z,14.97
2022-10-11T21:03:40.122Z,14.91
2022-10-11T21:06:07.253Z,14.88
2022-10-11T21:08:34.928Z,14.94
2022-10-11T21:11:02.064Z,14.97
2022-10-11T21:13:29.192Z,14.98
2022-10-11T21:15:55.900Z,14.96
2022-10-11T21:18:22.623Z,14.95
2022-10-11T21:20:49.273Z,14.94
2022-10-11T21:23:18.950Z,14.93
2022-10-11T21:25:45.959Z,14.92
2022-10-11T21:28:12.675Z,14.91
2022-10-11T21:30:39.346Z,14.89
2022-10-11T21:33:06.072Z,14.87
2022-10-11T21:35:32.730Z,14.83
2022-10-11T21:37:59.870Z,14.87
2022-10-11T21:40:27.044Z,14.89
2022-10-11T21:42:53.754Z,14.88
2022-10-11T21:45:20.852Z,14.85
2022-10-11T21:47:47.637Z,14.82
2022-10-11T21:50:14.362Z,14.82
2022-10-11T21:52:41.078Z,14.79
2022-10-11T21:55:07.818Z,14.78
2022-10-11T21:57:34.613Z,14.76
2022-10-11T22:00:01.286Z,14.74
2022-10-11T22:02:28.015Z,14.73
2022-10-11T22:04:54.707Z,14.79
2022-10-11T22:07:21.389Z,14.82
2022-10-11T22:09:48.073Z,14.84
2022-10-11T22:12:14.806Z,14.82
2022-10-11T22:14:41.464Z,14.81
2022-10-11T22:17:08.194Z,14.80
2022-10-11T22:19:34.865Z,14.81
2022-10-11T22:22:01.692Z,14.79
2022-10-11T22:24:29.290Z,14.77
2022-10-11T22:26:56.060Z,14.76
2022-10-11T22:29:22.760Z,14.76
2022-10-11T22:31:49.514Z,14.82
2022-10-11T22:34:16.204Z,14.85
2022-10-11T22:36:42.939Z,14.85
2022-10-11T22:39:10.392Z,14.83
2022-10-11T22:41:38.064Z,14.80
2022-10-11T22:44:05.055Z,14.78
2022-10-11T22:46:31.910Z,14.77
2022-10-11T22:48:58.620Z,14.74
2022-10-11T22:51:25.317Z,14.73
2022-10-11T22:53:52.055Z,14.71
2022-10-11T22:56:18.772Z,14.71
2022-10-11T22:58:45.615Z,14.76
2022-10-11T23:01:15.786Z,14.79
2022-10-11T23:03:43.494Z,14.79
2022-10-11T23:06:10.227Z,14.77
2022-10-11T23:08:37.051Z,14.76
2022-10-11T23:11:05.970Z,14.75
2022-10-11T23:13:33.202Z,14.74
2022-10-11T23:16:00.001Z,14.73
2022-10-11T23:18:27.524Z,14.71
2022-10-11T23:20:54.198Z,14.70
2022-10-11T23:23:20.902Z,14.75
2022-10-11T23:25:47.506Z,14.76
2022-10-11T23:28:14.258Z,14.76
2022-10-11T23:30:41.053Z,14.74
2022-10-11T23:33:07.710Z,14.70
2022-10-11T23:35:34.922Z,14.68
2022-10-11T23:38:01.704Z,14.66
2022-10-11T23:40:28.431Z,14.64
2022-10-11T23:42:55.185Z,14.62
2022-10-11T23:45:21.957Z,14.59
2022-10-11T23:47:48.580Z,14.58
2022-10-11T23:50:15.360Z,14.62
2022-10-11T23:52:42.097Z,14.64
2022-10-11T23:55:09.159Z,14.64
2022-10-11T23:57:36.055Z,14.62
